Bewolking Meer informatie Parkstad Weather Satellite


Neerslag Meer informatie Parkstad Rain Snow Radar


Onweersbuien Meer informatie Parkstad Lighntning


24/7 Weercamera Meer informatie Parkstad Weathercam


Natuurbrandrisico
CBI






Het weer levert geen direct gevaar op in Parkstad (045)    Er zijn geen waarschuwingen afgegeven voor Parkstad (045)

METAR rapporten vliegvelden

   
EHBK - Beek Nederland
Gewijzigd: 20-04-2018 14:25
Gedeeltelijk bewolkt  
Gedeeltelijk bewolkt  
   Wind: WZW 13 km/h
Wind: WZW 13 km/h
Temperatuur: 26°C
Dauwpunt: 11°C
Vochtigheid: 39%
Barometer: 1022 hPa
Satelliet beelden: Gedeeltelijk bewolkt
Zicht: meer dan 10 km
Bewolking: Gedeeltelijk bewolkt
EHBK 201225Z AUTO 24007KT 200V290 9999 NSC 26/11 Q1022 NOSIG
EHBK - Maastricht Nederland
Gewijzigd: 20-04-2018 14:25
Gedeeltelijk bewolkt  
Gedeeltelijk bewolkt  
   Wind: WZW 13 km/h
Wind: WZW 13 km/h
Temperatuur: 26°C
Dauwpunt: 11°C
Vochtigheid: 39%
Barometer: 1022 hPa
Satelliet beelden: Gedeeltelijk bewolkt
Zicht: meer dan 10 km
Bewolking: Gedeeltelijk bewolkt
EHBK 201225Z AUTO 24007KT 200V290 9999 NSC 26/11 Q1022 NOSIG
EBLG - Liège België
Gewijzigd: 20-04-2018 14:20
Licht bewolkt  
Licht bewolkt  
   Wind: Westen 9.3 km/h
Wind: Westen 9.3 km/h
Temperatuur: 26°C
Dauwpunt: 12°C
Vochtigheid: 42%
Barometer: 1023 hPa
Satelliet beelden: Licht bewolkt
Zicht: meer dan 10 km
Bewolking: Licht bewolkt 1219 m
EBLG 201220Z 27005KT 220V320 9999 FEW040 26/12 Q1023 NOSIG
EDDK - Köln/Bonn Duitsland
Gewijzigd: 20-04-2018 14:20
Helder  
Helder  
   Wind: Westen 9.3 km/h
Wind: Westen 9.3 km/h
Temperatuur: 27°C
Dauwpunt: 7°C
Vochtigheid: 28%
Barometer: 1023 hPa
Zicht: meer dan 10 km
Bewolking: Helder
EDDK 201220Z 28005KT 210V320 CAVOK 27/07 Q1023 NOSIG
EDDL - Düsseldorf Duitsland
Gewijzigd: 20-04-2018 14:20
Helder  
Helder  
   Wind: varieert 3.7 km/h
Wind: varieert 3.7 km/h
Temperatuur: 27°C
Dauwpunt: 10°C
Vochtigheid: 34%
Barometer: 1022 hPa
Zicht: meer dan 10 km
Bewolking: Helder
EDDL 201220Z VRB02KT CAVOK 27/10 Q1022 NOSIG
EHEH - Eindhoven Nederland
Gewijzigd: 20-04-2018 14:25
Grotendeels bewolkt  
Grotendeels bewolkt  
   Wind: ZW 16.7 km/h
Wind: ZW 16.7 km/h
Temperatuur: 28°C
Dauwpunt: 11°C
Vochtigheid: 35%
Barometer: 1022 hPa
Satelliet beelden: Grotendeels bewolkt
Zicht: meer dan 10 km
Bewolking: Licht bewolkt 2012 m,
Grotendeels bewolkt 10363 m
EHEH 201225Z AUTO 23009KT 190V280 9999 FEW066 BKN340 28/11 Q1022 BLU 24007KT CAVOK
ELLX - Luxemburg Luxemburg
Gewijzigd: 20-04-2018 14:20
Helder  
Helder  
   Wind: varieert 9.3 km/h
Wind: varieert 9.3 km/h
Temperatuur: 26°C
Dauwpunt: 6°C
Vochtigheid: 28%
Barometer: 1024 hPa
Zicht: meer dan 10 km
Bewolking: Helder
ELLX 201220Z VRB05KT CAVOK 26/06 Q1024 NOSIG
EGLL - London England
Gewijzigd: 20-04-2018 14:20
Helder  
Helder  
   Wind: Westen 9.3 km/h
Wind: Westen 9.3 km/h
Temperatuur: 24°C
Dauwpunt: 12°C
Vochtigheid: 47%
Barometer: 1023 hPa
Satelliet beelden: Helder
Zicht: meer dan 10 km
Bewolking: Helder
EGLL 201220Z AUTO 28005KT 210V010 9999 NCD 24/12 Q1023 NOSIG
EBAW - Antwerpen België
Gewijzigd: 20-04-2018 14:20
Helder  
Helder  
   Wind: WNW 14.8 km/h
Wind: WNW 14.8 km/h
Temperatuur: 26°C
Dauwpunt: 12°C
Vochtigheid: 42%
Barometer: 1022 hPa
Zicht: meer dan 10 km
Bewolking: Helder
EBAW 201220Z 29008KT 230V320 CAVOK 26/12 Q1022 NOSIG
EBOS - Oostende België
Gewijzigd: 20-04-2018 14:20
Licht bewolkt  
Licht bewolkt  
   Wind: Westen 16.7 km/h
Wind: Westen 16.7 km/h
Temperatuur: 18°C
Dauwpunt: 9°C
Vochtigheid: 56%
Barometer: 1024 hPa
Satelliet beelden: Licht bewolkt
Zicht: meer dan 10 km
Bewolking: Licht bewolkt 975 m
EBOS 201220Z 28009KT 9999 FEW032 18/09 Q1024 NOSIG
LEAL - La Nucia Spanje
Gewijzigd: 20-04-2018 14:30
Licht bewolkt  
Licht bewolkt  
   Wind: Oosten 37 km/h
Wind: Oosten 37 km/h
Temperatuur: 19°C
Dauwpunt: 13°C
Vochtigheid: 68%
Barometer: 1021 hPa
Satelliet beelden: Licht bewolkt
Zicht: meer dan 10 km
Bewolking: Licht bewolkt 610 m
LEAL 201230Z 09020KT 9999 FEW020 19/13 Q1021 NOSIG
TNCA - Oranjestad Aruba
Gewijzigd: 20-04-2018 14:00
Gedeeltelijk bewolkt  
Gedeeltelijk bewolkt  
   Wind: Oosten 37 km/h<br />Gust to 37 km/h
Wind: Oosten 37 km/h
Gust to 37 km/h
Temperatuur: 28°C
Gevoelstemperatuur: 32°C
Dauwpunt: 24°C
Vochtigheid: 79%
Barometer: 1014 hPa
Satelliet beelden: Gedeeltelijk bewolkt
Zicht: meer dan 10 km
Bewolking: Gedeeltelijk bewolkt 549 m
TNCA 201200Z 09020G31KT 9999 SCT018 28/24 Q1014 A2996 NOSIG
TNCC - Willemstad Curacao
Gewijzigd: 20-04-2018 14:00
Helder  
Helder  
   Wind: Oosten 27.8 km/h
Wind: Oosten 27.8 km/h
Temperatuur: 27°C
Gevoelstemperatuur: 29°C
Dauwpunt: 22°C
Vochtigheid: 74%
Barometer: 1016 hPa
Satelliet beelden: Helder
Zicht: meer dan 10 km
Bewolking: Helder
TNCC 201200Z AUTO 10015KT 9999 NCD 27/22 Q1016 NOSIG
MTPP - Port au Prince Haitië
Gewijzigd: 20-04-2018 14:00
Licht bewolkt  
Licht bewolkt  
   Wind: Oosten 29.6 km/h
Wind: Oosten 29.6 km/h
Temperatuur: 27°C
Gevoelstemperatuur: 29°C
Dauwpunt: 22°C
Vochtigheid: 74%
Barometer: 1016 hPa
Satelliet beelden: Licht bewolkt
Zicht: 9 km
Bewolking: Licht bewolkt 610 m
MTPP 201200Z 09016KT 9000 FEW020 27/22 Q1016 A3000
ENVA - Trondheim Noorwegen
Gewijzigd: 20-04-2018 14:20
Wat regen mogelijk, Gedeeltelijk bewolkt  
Wat regen mogelijk, Gedeeltelijk bewolkt  
   Wind: Oosten 7.4 km/h
Wind: Oosten 7.4 km/h
Temperatuur: 9°C
Voelt als: 8°C
Dauwpunt: 8°C
Vochtigheid: 94%
Barometer: 1013 hPa
Satelliet beelden: Gedeeltelijk bewolkt
Zicht: 7 km
Bewolking: Licht bewolkt 183 m,
Gedeeltelijk bewolkt 762 m
ENVA 201220Z 10004KT 7000 -RA FEW006 SCT025 09/08 Q1013 TEMPO 4000 SHRA BKN012 RMK WIND 670FT 19009KT
ENBO - Bodø Noorwegen
Gewijzigd: 20-04-2018 14:20
Grotendeels bewolkt  
Grotendeels bewolkt  
   Wind: Oosten 13 km/h
Wind: Oosten 13 km/h
Temperatuur: 6°C
Voelt als: 3°C
Dauwpunt: 6°C
Vochtigheid: 100%
Barometer: 1009 hPa
Satelliet beelden: Grotendeels bewolkt
Zicht: meer dan 10 km
Bewolking: Licht bewolkt 305 m,
Grotendeels bewolkt 762 m
ENBO 201220Z 10007KT 9999 FEW010 BKN025 06/06 Q1009 TEMPO 22012KT BKN014
ETNG - Geilenkirchen Duitsland
Gewijzigd: 20-04-2018 13:50
Helder  
Helder  
   Wind: Westen 11.1 km/h
Wind: Westen 11.1 km/h
Temperatuur: 27°C
Dauwpunt: 12°C
Vochtigheid: 39%
Barometer: 1023 hPa
Zicht: meer dan 10 km
Bewolking: Helder
ETNG 201150Z 26006KT CAVOK 27/12 Q1023 NOSIG
 

Script ontwikkeld door  Saratoga-weather.org Aangepast voor de template door  Weerstation Leuven

U vindt ons ook hier:

Het Weer Aktueel

UK Metoffice

European Weather Network

WeatherCloud

Weather Underground

Benelux Weer Netwerk

AWEKAS

WeatherlinkIP

Citizen Weather Observer Program (CWOP)

HAMweather, WeatherForYou, PWS Weather

Apparatuur in gebruik:

Hardwareleverancier
Weerhuisje

Weerstation
Vantage Pro2+ +UV

Weercomputer's
alix3d2 & wl330n

Weerprogramma's
Smartbedded

Satelliet NOAA's
WRX137 & KX137

Satelliet Eumetcast
Ayecka SR1 & Triax

Bliksemdetectie
Boltek StormTracker

Webleverancier
VPS Linux V80

Weerhuisje

Vantage Pro2+ +UV

alix3d2 & wl330n

Smartbedded

WRX137 & KX137

Ayecka SR1 & Triax

Boltek StormTracker

VPS Linux V80